今朝の羽田(2017/04/20)

HKE624/B-LEC(A320)

QFA25/VH-OJS(B744)

ANA880/JA871A(B789)

ANA850/JA883A(B789)

JAL36/JA701J(B772)

JAL34/JA702J(B772)

ANA844/JA879A(B789)

ANA968/JA804A(B788)

*TTW217/B-50001(A320)

THA682/HS-TGW(B744) STAR ALLIANCE c/s

*SECTOR8/JA008G(C25C)

*(GLEX)

ANA8554/JA817A(B788)

SECTOR8/JA008G(C25C) LEVEL RUN RWY22

*APJ859/JA818P(A320)

ANA856/JA884A(B789)

SIA636/9V-SWW(B77W)

*JAL8122/JA304J(B738)

ANA204/JA784A(B77W)

SECTOR8/JA008G(C25C) LEVEL RUN RWY22

SECTOR8/JA008G(C25C) LEVEL RUN RWY22

*VH-URR(CL60)

*AAR177/HL7792(A333)

SECTOR8/JA008G(C25C) LEVEL RUN RWY22

*(GLEX)

JAL70/JA833J(B788)

*HKE625/B-LEC(A320)

SECTOR8/JA008G(C25C) LOW APR RWY22

ANA9142/JA606A(B763)

SECTOR8/JA008G(C25C) LOW APR RWY22

BAW7/G-STBJ(B77W)

RJTT 192000Z 32010KT CAVOK 11/00 Q1010 NOSIG RMK A2984

RJTT 192100Z 33016KT CAVOK 13/00 Q1010 NOSIG RMK A2985

RJTT 192200Z 35010KT CAVOK 14/01 Q1011 NOSIG RMK A2988

今朝の羽田は晴れています。

☆☆☆外部記憶装置であるメモ帳

外部記憶装置

であるメモ帳

皆さん、こんにちは!

マリータです。

訪問ありがとうございます。

今回も最近感じたことを

書きたいと思います。

仕事でよくいろんなことを

頼まれますが、

数が多すぎて忘れやすく

なることもある。

その時にはやはり、

メモを取ることが

一番いいことだと思う。

一時的に忘れることが

出来るため、新しいことにも

どんどん取り組めたりもします。

メモを活用して、物事を

うまく進めていきたいですね。

☆☆☆

最近聴いた曲で、

良かった曲は?

(動画)Real

Live Stream | Groovy Godzilla

floating nights

My current love:

Estas tonne

leandro kasan

John Butler

And I love my room

I really love it. Im in love with it now.

Over the years

Ive done nothing

cant believe i end up screwing my life like this

but i feel so thankful for all the good sound.

広告を非表示にする

ぷよぷよ、やりたい

どうしてこうなった 「バベルの塔」展、公式マスコットの「タラ夫」から漂う狂気と混沌

わくわくイースター子ども大会

昨日4月16日(日)午後に教会にて

『わくわくイースター子ども大会』がありました。

歌・ゲーム大会・おはなし・パンケーキパーティーなど

楽しいプログラム満載でした。

牧師先生によりイースターのお話しのあと、

たくさん美味しいパンケーキをいただきました。

(トッピングもいろいろ用意し、自分でオリジナルを

作って食べました。、)

この日人気だったのは

生クリームどら焼き風パンケーキ!!

あんこと生クリームと栗のサンドって・・

合うんです!!( ´艸`)

昨日のひとこと

◆2017年4月19日(水)◆

ソメイヨシノはもう殆ど花が散ってしまっています。

しかし今年はよく頑張った方だと思います。

これからは八重桜が楽しめそうなのです。

※本日版の「今日のひとこと」は当院ホームページ

http://www.megu.e-doctor.info/

に掲載しています。

広告を非表示にする

【目標1,000いいね!日記】 2017年4月19日(水)_No.1934 ◎本日の記念日(保育の日)

【目標1,000いいね!日記】

2017年4月19日(水)_No.1934

◎本日の記念日(保育の日)

おはようございます^o^

本日は保育の日です♪

まだ保育には無縁ですが

最近は保育さんが足りないそうで

受入れ拒否されたり

病気の子どもは預けられないなど

お困りごとが多いそうです^^;

そこで今週末は

育児に目を向けた講演会に参加して来ます(^^)/

少しでも興味を持つために!笑

もしご興味ある方が

いらっしゃいましたら一緒に参加しましょう(*^^*)

それでは本日もよろしくお願い致します♪

主催者: Npo法人はんどいんはんど

育児と仕事の両立はムリなの?〜フローレンスの訪問型病児保育から学ぶ〜

https://www.facebook.com/events/1551211471573591/

----------

○保育の日

保育や子育てに役立つ遊び情報サイト「ほいくる♪」を運営する子ども法人キッズカラーが制定。

子どもたちの育ちにとって大切な乳幼児期に、近くにいる大人が子どもへの理解を深め、保育を楽しみ、その在り方を見つめ直し、自身が育つきっかけの日とするのが目的。

日付は4と19の4を「保=フォー」、19を「育=いく」と読む語呂合わせから。

----------

【目標1,000いいね!日記】

2017年4月19日(水)_No.1934

◎愛知県のお天気コーナー

【今日はポカポカ陽気】

今日は青空が広がりポカポカ陽気です。

風が強く、気温の数字よりも寒さを感じられそう。

服装で上手に体感温度の調節をしてください。

特に、沿岸付近は自転車が倒れる程度の風が吹くので注意が必要です。